Time;durP1;ratioP1;P1;durP2;ratioP2;P2;SDS_P1;SDS_P2;PMS_P1;PMS_P2;Temp;Humidity;BMP_temperature;BMP_pressure;BME280_temperature;BME280_humidity;BME280_pressure;Samples;Min_cycle;Max_cycle;Signal;HPM_P1;HPM_P2
2022/12/26 00:01:39;;;;;;;62.85;23.75;;;8.60;99.90;;;;;;5073519;28;20037;-69
2022/12/26 00:04:05;;;;;;;43.90;21.50;;;8.70;99.90;;;;;;5073182;28;20083;-69
2022/12/26 00:06:31;;;;;;;41.05;22.00;;;8.60;99.90;;;;;;5073066;28;20045;-69
2022/12/26 00:08:58;;;;;;;55.00;22.85;;;8.60;99.90;;;;;;5073345;28;20068;-69
2022/12/26 00:11:24;;;;;;;46.30;22.73;;;8.70;99.90;;;;;;5073031;28;20401;-69
2022/12/26 00:13:58;;;;;;;45.88;22.50;;;8.60;99.90;;;;;;5072933;28;20446;-69
2022/12/26 00:16:25;;;;;;;44.20;22.38;;;8.70;99.90;;;;;;5072935;28;20045;-69
2022/12/26 00:18:51;;;;;;;45.85;22.83;;;8.70;99.90;;;;;;5074231;28;20040;-69
2022/12/26 00:21:18;;;;;;;41.15;21.70;;;8.60;99.90;;;;;;5073158;28;20044;-69
2022/12/26 00:23:44;;;;;;;39.45;20.13;;;8.70;99.90;;;;;;5072809;28;20058;-69
2022/12/26 00:26:13;;;;;;;46.25;23.25;;;8.60;99.90;;;;;;5074228;28;20076;-69
2022/12/26 00:28:39;;;;;;;35.00;19.27;;;8.70;99.90;;;;;;5072730;28;20044;-69
2022/12/26 00:31:07;;;;;;;41.15;20.40;;;8.70;99.90;;;;;;5055986;28;20048;-69
2022/12/26 00:33:34;;;;;;;53.13;21.40;;;8.60;99.90;;;;;;5072534;28;20135;-69
2022/12/26 00:36:14;;;;;;;52.63;21.60;;;8.60;99.90;;;;;;5074052;28;20033;-69
2022/12/26 00:38:41;;;;;;;53.08;20.67;;;8.60;99.90;;;;;;5072609;28;20512;-69
2022/12/26 00:41:08;;;;;;;44.03;18.52;;;8.60;99.90;;;;;;5072503;28;20119;-69
2022/12/26 00:43:35;;;;;;;81.72;23.30;;;8.60;99.90;;;;;;5072675;28;20206;-69
2022/12/26 00:46:01;;;;;;;61.53;21.50;;;8.60;99.90;;;;;;5072563;28;20420;-69
2022/12/26 00:48:27;;;;;;;43.58;18.40;;;8.60;99.90;;;;;;5072221;28;20133;-69
2022/12/26 00:50:52;;;;;;;37.22;17.38;;;8.60;99.90;;;;;;5072541;28;20045;-69
2022/12/26 00:53:19;;;;;;;46.13;18.92;;;8.60;99.90;;;;;;5072167;28;20094;-69
2022/12/26 00:55:44;;;;;;;78.15;21.58;;;8.60;99.90;;;;;;5072398;28;20040;-69
2022/12/26 00:58:10;;;;;;;57.85;21.08;;;8.60;99.90;;;;;;5072306;28;20041;-69
2022/12/26 01:00:35;;;;;;;69.93;21.38;;;8.60;99.90;;;;;;5072193;28;20123;-69
2022/12/26 01:03:05;;;;;;;53.00;20.35;;;8.60;99.90;;;;;;5072394;28;20079;-69
2022/12/26 01:05:30;;;;;;;62.67;22.20;;;8.60;99.90;;;;;;5072042;28;20558;-69
2022/12/26 01:07:56;;;;;;;56.38;20.80;;;8.60;99.90;;;;;;5072077;28;20036;-69
2022/12/26 01:10:21;;;;;;;46.72;19.63;;;8.60;99.90;;;;;;5072313;28;20044;-69
2022/12/26 01:12:47;;;;;;;46.28;20.35;;;8.60;99.90;;;;;;5071965;28;20458;-69
2022/12/26 01:15:12;;;;;;;41.55;19.75;;;8.60;99.90;;;;;;5072226;28;20043;-69
2022/12/26 01:17:38;;;;;;;40.90;18.65;;;8.50;99.90;;;;;;5071853;28;20036;-69
2022/12/26 01:20:04;;;;;;;41.80;18.33;;;8.60;99.90;;;;;;5071962;28;20036;-69
2022/12/26 01:22:29;;;;;;;43.15;18.73;;;8.60;99.90;;;;;;5071886;28;20051;-69
2022/12/26 01:24:56;;;;;;;41.88;16.60;;;8.60;99.90;;;;;;5071860;28;20049;-69
2022/12/26 01:27:23;;;;;;;55.67;17.15;;;8.60;99.90;;;;;;5073060;28;20044;-69
2022/12/26 01:29:48;;;;;;;42.10;16.60;;;8.60;99.90;;;;;;5072078;28;20040;-69
2022/12/26 01:32:14;;;;;;;38.35;16.75;;;8.60;99.90;;;;;;5071690;28;20173;-69
2022/12/26 01:34:40;;;;;;;40.03;15.95;;;8.60;99.90;;;;;;5071799;28;20040;-69
2022/12/26 01:37:06;;;;;;;45.72;17.58;;;8.60;99.90;;;;;;5071696;28;20122;-69
2022/12/26 01:39:31;;;;;;;52.10;18.20;;;8.60;99.90;;;;;;5071976;28;20508;-69
2022/12/26 01:41:57;;;;;;;49.17;17.55;;;8.60;99.90;;;;;;5071720;28;20043;-69
2022/12/26 01:44:59;;;;;;;79.18;21.10;;;8.60;99.90;;;;;;5071689;28;20139;-69
2022/12/26 01:47:38;;;;;;;68.18;20.25;;;8.60;99.90;;;;;;5071491;28;20043;-69
2022/12/26 01:50:05;;;;;;;63.08;20.38;;;8.60;99.90;;;;;;5071680;28;20036;-69
2022/12/26 01:52:41;;;;;;;44.60;18.02;;;8.60;99.90;;;;;;5071537;28;20052;-69
2022/12/26 01:55:13;;;;;;;50.78;19.48;;;8.60;99.90;;;;;;5071578;28;20044;-69
2022/12/26 01:57:46;;;;;;;53.60;20.10;;;8.60;99.90;;;;;;5071470;28;20497;-69
2022/12/26 02:00:12;;;;;;;38.50;17.80;;;8.60;99.90;;;;;;5071564;28;20448;-69
2022/12/26 02:05:35;;;;;;;39.97;17.80;;;8.70;99.90;;;;;;5071336;28;20456;-69
2022/12/26 02:08:23;;;;;;;42.72;18.27;;;8.60;99.90;;;;;;5071454;28;20456;-69
2022/12/26 02:11:06;;;;;;;52.03;20.80;;;8.60;99.90;;;;;;5075412;28;20512;-69
2022/12/26 02:13:37;;;;;;;44.92;19.35;;;8.60;99.90;;;;;;5075254;28;20389;-69
2022/12/26 02:16:04;;;;;;;38.58;18.52;;;8.60;99.90;;;;;;5075252;28;20509;-69
2022/12/26 02:18:29;;;;;;;51.08;21.20;;;8.60;99.90;;;;;;5075232;28;20040;-69
2022/12/26 02:21:31;;;;;;;43.08;19.75;;;8.70;99.90;;;;;;5076441;28;20032;-69
2022/12/26 02:24:26;;;;;;;38.72;19.27;;;8.70;99.90;;;;;;5075092;28;20048;-69
2022/12/26 02:27:04;;;;;;;41.22;20.20;;;8.70;99.90;;;;;;5075044;28;20048;-69
2022/12/26 02:30:00;;;;;;;38.60;19.35;;;8.70;99.90;;;;;;5075087;28;20508;-69
2022/12/26 02:32:37;;;;;;;41.28;19.90;;;8.70;99.90;;;;;;5074856;28;20048;-69
2022/12/26 02:35:18;;;;;;;36.55;19.67;;;8.70;99.90;;;;;;5075216;28;20052;-69
2022/12/26 02:38:13;;;;;;;34.55;19.15;;;8.70;99.90;;;;;;5074912;28;20489;-69
2022/12/26 02:40:56;;;;;;;37.00;18.88;;;8.70;99.90;;;;;;5046885;28;20080;-69
2022/12/26 02:43:34;;;;;;;33.45;19.13;;;8.70;99.90;;;;;;5074813;28;20048;-69
2022/12/26 03:13:11;;;;;;;42.17;25.08;;;8.90;99.90;;;;;;5074179;28;20413;-69
2022/12/26 03:18:43;;;;;;;40.55;24.63;;;8.90;99.90;;;;;;5074201;28;20040;-69
2022/12/26 03:21:10;;;;;;;43.33;25.73;;;8.90;99.90;;;;;;5075258;28;20456;-69
2022/12/26 03:23:40;;;;;;;37.42;23.75;;;8.90;99.90;;;;;;5074302;28;20054;-69
2022/12/26 03:30:47;;;;;;;49.83;26.65;;;8.90;99.90;;;;;;5074225;28;20131;-69
2022/12/26 03:31:41;;;;;;;42.85;25.73;;;8.90;99.90;;;;;;5073805;28;20045;-69
2022/12/26 03:34:18;;;;;;;44.50;26.80;;;8.90;99.90;;;;;;5073813;28;20040;-69
2022/12/26 03:36:47;;;;;;;49.50;27.90;;;8.90;99.90;;;;;;5073754;28;20036;-69
2022/12/26 04:20:45;;;;;;;44.85;29.70;;;8.90;99.90;;;;;;5072911;28;20420;-69
2022/12/26 04:46:19;;;;;;;37.35;25.95;;;8.90;99.90;;;;;;5072396;28;20048;-69
2022/12/26 04:51:31;;;;;;;33.40;24.65;;;8.90;99.90;;;;;;5072363;28;20040;-69
2022/12/26 04:53:56;;;;;;;32.80;24.63;;;8.80;99.90;;;;;;5073478;28;20041;-69
2022/12/26 04:56:22;;;;;;;34.40;24.85;;;8.80;99.90;;;;;;5072236;28;20140;-69
2022/12/26 04:58:48;;;;;;;32.90;23.50;;;8.80;99.90;;;;;;5072497;28;20044;-69
2022/12/26 05:09:34;;;;;;;32.13;23.35;;;8.70;99.90;;;;;;5072172;28;20056;-70
2022/12/26 05:12:02;;;;;;;28.45;23.02;;;8.80;99.90;;;;;;5072268;28;20048;-69
2022/12/26 05:14:30;;;;;;;27.95;22.35;;;8.80;99.90;;;;;;5072037;28;20048;-69
2022/12/26 05:30:57;;;;;;;26.38;21.02;;;8.70;99.90;;;;;;5072152;28;20048;-69
2022/12/26 05:36:08;;;;;;;25.10;20.42;;;8.70;99.90;;;;;;5071763;28;20049;-69
2022/12/26 05:38:35;;;;;;;26.58;20.35;;;8.70;99.90;;;;;;5072042;28;20115;-69
2022/12/26 05:41:01;;;;;;;25.13;20.17;;;8.70;99.90;;;;;;5071772;28;20040;-69
2022/12/26 05:43:26;;;;;;;25.88;20.02;;;8.70;99.90;;;;;;5072360;28;20199;-69
2022/12/26 05:45:52;;;;;;;24.58;20.33;;;8.70;99.90;;;;;;5075834;28;20554;-69
2022/12/26 05:48:17;;;;;;;25.45;20.42;;;8.70;99.90;;;;;;5075904;28;20056;-69
2022/12/26 05:50:43;;;;;;;26.92;20.30;;;8.70;99.90;;;;;;5076074;28;20059;-69
2022/12/26 05:53:08;;;;;;;25.25;20.73;;;8.70;99.90;;;;;;5075754;28;20138;-69
2022/12/26 05:55:34;;;;;;;26.15;20.65;;;8.70;99.90;;;;;;5075950;28;20048;-69
2022/12/26 05:58:00;;;;;;;26.10;20.35;;;8.70;99.90;;;;;;5076905;28;20373;-69
2022/12/26 06:00:26;;;;;;;25.50;20.60;;;8.70;99.90;;;;;;5075917;28;20040;-69
2022/12/26 06:02:52;;;;;;;27.08;21.60;;;8.70;99.90;;;;;;5075618;28;20072;-69
2022/12/26 06:05:18;;;;;;;27.00;21.30;;;8.70;99.90;;;;;;5075473;28;20068;-69
2022/12/26 06:07:43;;;;;;;28.80;21.75;;;8.70;99.90;;;;;;5075464;28;20051;-69
2022/12/26 06:10:09;;;;;;;23.58;18.88;;;8.70;99.90;;;;;;5075435;28;20044;-69
2022/12/26 06:12:35;;;;;;;25.90;20.75;;;8.70;99.90;;;;;;5076870;28;20058;-69
2022/12/26 06:15:00;;;;;;;26.77;21.45;;;8.70;99.90;;;;;;5075611;28;20040;-69
2022/12/26 06:17:26;;;;;;;24.60;20.23;;;8.70;99.90;;;;;;5075234;28;20386;-69
2022/12/26 06:19:52;;;;;;;26.48;20.85;;;8.80;99.90;;;;;;5075268;28;20040;-69
2022/12/26 06:22:17;;;;;;;26.55;20.80;;;8.80;99.90;;;;;;5075185;28;20123;-69
2022/12/26 06:24:43;;;;;;;24.48;19.92;;;8.80;99.90;;;;;;5076673;28;20098;-69
2022/12/26 06:27:09;;;;;;;25.10;19.85;;;8.80;99.90;;;;;;5075002;28;20041;-69
2022/12/26 06:29:35;;;;;;;24.00;19.65;;;8.80;99.90;;;;;;5075047;28;20055;-69
2022/12/26 06:32:01;;;;;;;22.90;18.02;;;8.80;99.90;;;;;;5075206;28;20055;-69
2022/12/26 06:34:26;;;;;;;24.13;18.80;;;8.80;99.90;;;;;;5074911;28;20512;-69
2022/12/26 06:36:54;;;;;;;23.10;18.58;;;8.80;99.90;;;;;;5075127;28;20083;-69
2022/12/26 06:39:20;;;;;;;23.35;17.30;;;8.80;99.90;;;;;;5074885;28;20047;-69
2022/12/26 06:41:45;;;;;;;22.05;17.42;;;8.90;99.90;;;;;;5074835;28;20040;-69
2022/12/26 06:44:11;;;;;;;22.23;16.67;;;8.90;99.90;;;;;;5074800;28;20049;-69
2022/12/26 06:46:37;;;;;;;22.13;17.02;;;8.90;99.90;;;;;;5075940;28;20040;-69
2022/12/26 06:49:02;;;;;;;20.50;16.73;;;8.90;99.90;;;;;;5074609;28;20051;-70
2022/12/26 06:51:28;;;;;;;22.02;17.67;;;8.90;99.90;;;;;;5074935;28;20043;-69
2022/12/26 06:53:54;;;;;;;21.08;16.50;;;8.90;99.90;;;;;;5074566;28;20448;-70
2022/12/26 06:56:25;;;;;;;21.23;16.75;;;8.90;99.90;;;;;;5074036;28;20044;-70
2022/12/26 06:58:55;;;;;;;25.55;16.73;;;8.90;99.90;;;;;;5074594;28;20094;-69
2022/12/26 07:01:22;;;;;;;19.92;15.45;;;8.90;99.90;;;;;;5074733;28;20547;-70
2022/12/26 07:03:48;;;;;;;19.15;15.32;;;8.90;99.90;;;;;;5074450;28;20128;-70
2022/12/26 07:06:28;;;;;;;18.25;14.82;;;8.90;99.90;;;;;;5074346;28;20190;-69
2022/12/26 07:08:57;;;;;;;21.08;14.65;;;8.90;99.90;;;;;;5074364;28;20052;-69
2022/12/26 07:11:25;;;;;;;19.05;13.95;;;8.90;99.90;;;;;;5057607;28;20111;-69
2022/12/26 07:13:52;;;;;;;18.25;13.48;;;8.90;99.90;;;;;;5074192;28;20528;-69
2022/12/26 07:16:18;;;;;;;20.77;12.57;;;8.90;99.90;;;;;;5074159;28;20076;-70
2022/12/26 07:18:43;;;;;;;16.95;13.02;;;8.90;99.90;;;;;;5074459;28;20083;-70
2022/12/26 07:21:12;;;;;;;17.23;12.98;;;8.90;99.90;;;;;;5074116;28;20087;-70
2022/12/26 07:23:38;;;;;;;15.40;12.45;;;8.90;99.90;;;;;;5074063;28;20447;-70
2022/12/26 07:26:04;;;;;;;17.67;13.65;;;8.90;99.90;;;;;;5073943;28;20090;-70
2022/12/26 07:28:30;;;;;;;15.88;12.50;;;8.90;99.90;;;;;;5073928;28;20398;-70
2022/12/26 07:30:59;;;;;;;16.92;12.82;;;8.90;99.90;;;;;;5073940;28;20143;-70
2022/12/26 07:33:26;;;;;;;19.80;13.35;;;8.90;99.90;;;;;;5073932;28;20040;-70
2022/12/26 07:35:51;;;;;;;15.95;13.30;;;8.90;99.90;;;;;;5073766;28;20417;-69
2022/12/26 07:38:17;;;;;;;16.40;13.85;;;8.90;99.90;;;;;;5057167;28;20043;-70
2022/12/26 07:40:43;;;;;;;21.33;13.10;;;8.90;99.90;;;;;;5074015;28;20044;-70
2022/12/26 07:43:09;;;;;;;17.35;14.00;;;8.90;99.90;;;;;;5073740;28;20501;-70
2022/12/26 07:45:34;;;;;;;18.08;13.73;;;8.90;99.90;;;;;;5073862;28;20044;-70
2022/12/26 07:48:00;;;;;;;19.52;14.10;;;8.90;99.90;;;;;;5073549;28;20444;-69
2022/12/26 07:50:27;;;;;;;20.20;13.40;;;8.90;99.90;;;;;;5073931;28;20051;-69
2022/12/26 07:52:53;;;;;;;18.00;13.57;;;8.90;99.90;;;;;;5073495;28;20036;-69
2022/12/26 07:55:19;;;;;;;17.67;13.93;;;8.90;99.90;;;;;;5073369;28;20049;-69
2022/12/26 07:57:49;;;;;;;17.27;13.25;;;8.90;99.90;;;;;;5073463;28;20054;-69
2022/12/26 08:00:15;;;;;;;16.17;13.07;;;8.90;99.90;;;;;;5074783;28;20113;-69
2022/12/26 08:02:41;;;;;;;21.80;13.45;;;8.80;99.90;;;;;;5074637;28;20489;-69
2022/12/26 08:05:07;;;;;;;21.50;14.43;;;8.90;99.90;;;;;;5073297;28;20044;-69
2022/12/26 08:07:32;;;;;;;20.85;15.02;;;8.80;99.90;;;;;;5072336;28;20044;-69
2022/12/26 08:09:58;;;;;;;18.83;13.90;;;8.80;99.90;;;;;;5073214;28;20048;-69
2022/12/26 08:12:25;;;;;;;20.05;13.57;;;8.80;99.90;;;;;;5073100;28;20122;-69
2022/12/26 08:14:51;;;;;;;19.50;13.00;;;8.70;99.90;;;;;;5073085;28;20048;-69
2022/12/26 08:17:17;;;;;;;16.67;13.38;;;8.70;99.90;;;;;;5072982;28;20098;-71
2022/12/26 08:19:43;;;;;;;16.75;12.68;;;8.70;99.90;;;;;;5072991;28;20112;-69
2022/12/26 08:22:09;;;;;;;20.05;12.20;;;8.70;99.90;;;;;;5072942;28;20111;-69
2022/12/26 08:24:34;;;;;;;19.23;12.40;;;8.70;99.90;;;;;;5074132;28;20435;-69
2022/12/26 08:27:00;;;;;;;15.30;12.40;;;8.70;99.90;;;;;;5072767;28;20081;-69
2022/12/26 08:29:25;;;;;;;15.75;10.15;;;8.80;99.90;;;;;;5072792;28;20040;-69
2022/12/26 08:31:51;;;;;;;17.90;11.15;;;8.80;99.90;;;;;;5073023;28;20048;-69
2022/12/26 08:34:17;;;;;;;15.05;9.93;;;8.80;99.90;;;;;;5072632;28;20397;-69
2022/12/26 08:36:42;;;;;;;15.23;10.45;;;8.90;99.90;;;;;;5072846;28;20052;-69
2022/12/26 08:39:08;;;;;;;15.60;9.60;;;8.90;99.90;;;;;;5072610;28;20045;-69
2022/12/26 08:41:34;;;;;;;11.75;8.55;;;8.90;99.90;;;;;;5072527;28;20040;-69
2022/12/26 08:43:59;;;;;;;15.13;9.35;;;9.00;99.90;;;;;;5072533;28;20044;-69
2022/12/26 08:46:25;;;;;;;13.07;8.15;;;9.00;99.90;;;;;;5072389;28;20040;-69
2022/12/26 08:48:50;;;;;;;11.70;8.02;;;9.00;99.90;;;;;;5072258;28;20109;-69
2022/12/26 08:51:22;;;;;;;10.80;7.45;;;9.00;99.90;;;;;;5072647;28;20036;-69
2022/12/26 08:53:49;;;;;;;13.20;8.25;;;9.10;99.90;;;;;;5072316;28;20072;-70
2022/12/26 08:56:19;;;;;;;14.30;7.47;;;9.10;99.90;;;;;;5072568;28;20040;-70
2022/12/26 08:58:45;;;;;;;10.65;6.88;;;9.10;99.90;;;;;;5072327;28;20564;-70
2022/12/26 09:01:19;;;;;;;10.88;6.53;;;9.10;99.90;;;;;;5072465;28;20041;-70
2022/12/26 09:03:45;;;;;;;9.52;6.50;;;9.10;99.90;;;;;;5072461;28;20064;-70
2022/12/26 09:06:13;;;;;;;12.80;6.50;;;9.10;99.90;;;;;;5072122;28;20493;-70
2022/12/26 09:08:39;;;;;;;8.25;5.15;;;9.10;99.90;;;;;;5072353;28;20133;-70
2022/12/26 09:11:11;;;;;;;11.57;5.97;;;9.20;99.90;;;;;;5072098;28;20063;-69
2022/12/26 09:13:37;;;;;;;11.13;5.60;;;9.20;99.90;;;;;;5071973;28;20086;-69
2022/12/26 09:16:22;;;;;;;14.93;5.82;;;9.30;99.90;;;;;;5072222;28;20033;-70
2022/12/26 09:18:51;;;;;;;13.65;5.90;;;9.30;99.90;;;;;;5055263;28;20082;-70
2022/12/26 09:21:17;;;;;;;10.57;5.97;;;9.30;99.90;;;;;;5072184;28;20486;-70
2022/12/26 09:23:43;;;;;;;13.00;5.80;;;9.30;99.90;;;;;;5055668;28;20135;-70
2022/12/26 09:26:16;;;;;;;8.88;5.63;;;9.20;99.90;;;;;;5072345;28;20044;-70
2022/12/26 09:28:44;;;;;;;11.93;5.85;;;9.20;99.90;;;;;;5072350;28;20094;-70
2022/12/26 09:31:12;;;;;;;10.38;5.63;;;9.20;99.90;;;;;;5072391;28;20048;-70
2022/12/26 09:33:38;;;;;;;13.55;6.03;;;9.20;99.90;;;;;;5072550;28;20047;-70
2022/12/26 09:36:06;;;;;;;16.33;6.43;;;9.30;99.90;;;;;;5072185;28;20047;-70
2022/12/26 09:38:33;;;;;;;10.45;5.20;;;9.20;99.90;;;;;;5072359;28;20076;-70
2022/12/26 09:41:17;;;;;;;9.88;4.55;;;9.20;99.90;;;;;;5055667;28;20040;-71
2022/12/26 09:43:57;;;;;;;7.57;4.07;;;9.20;99.90;;;;;;5072389;28;20041;-70
2022/12/26 09:46:42;;;;;;;8.35;4.50;;;9.20;99.90;;;;;;5055685;28;20132;-70
2022/12/26 09:49:12;;;;;;;8.70;4.25;;;9.30;99.90;;;;;;5072656;28;20037;-70
2022/12/26 09:51:42;;;;;;;10.30;4.07;;;9.30;99.90;;;;;;5073066;28;20037;-70
2022/12/26 09:54:31;;;;;;;10.38;4.15;;;9.30;99.90;;;;;;5072131;28;20520;-71
2022/12/26 09:56:59;;;;;;;9.60;3.67;;;9.20;99.90;;;;;;5072052;28;20041;-71
2022/12/26 09:59:26;;;;;;;8.25;3.75;;;9.20;99.90;;;;;;5072495;28;20497;-70
2022/12/26 10:01:52;;;;;;;11.63;3.35;;;9.20;99.90;;;;;;5072317;28;20051;-71
2022/12/26 10:04:24;;;;;;;19.48;3.40;;;9.20;99.90;;;;;;5072033;28;20048;-70
2022/12/26 10:07:15;;;;;;;12.82;2.53;;;9.10;99.90;;;;;;5072046;28;20553;-70
2022/12/26 10:09:54;;;;;;;15.60;2.65;;;9.00;99.90;;;;;;5055598;28;20051;-70
2022/12/26 10:12:33;;;;;;;14.35;2.53;;;8.80;99.90;;;;;;5071791;28;20049;-70
2022/12/26 10:15:23;;;;;;;16.55;2.55;;;8.70;99.90;;;;;;5073089;28;20094;-70
2022/12/26 10:18:11;;;;;;;12.82;1.98;;;8.70;99.90;;;;;;5072151;28;20071;-70
2022/12/26 10:20:48;;;;;;;14.35;2.17;;;8.50;99.90;;;;;;5071744;28;20040;-70
2022/12/26 10:24:01;;;;;;;14.10;2.05;;;8.50;99.90;;;;;;5072002;28;20040;-70
2022/12/26 10:26:40;;;;;;;14.38;2.35;;;8.40;99.90;;;;;;5017686;28;20544;-69
2022/12/26 10:29:08;;;;;;;11.57;2.22;;;8.40;99.90;;;;;;5034083;28;20049;-69
2022/12/26 10:31:57;;;;;;;14.43;2.30;;;8.40;99.90;;;;;;5037567;28;20580;-69
2022/12/26 10:34:27;;;;;;;12.52;1.75;;;8.30;99.90;;;;;;5037452;28;20049;-69
2022/12/26 10:37:00;;;;;;;17.83;2.72;;;8.20;99.90;;;;;;5037703;28;20045;-69
2022/12/26 10:39:49;;;;;;;13.70;2.10;;;8.20;99.90;;;;;;5037522;28;20037;-69
2022/12/26 10:42:28;;;;;;;13.35;1.70;;;8.10;99.90;;;;;;5007647;28;20501;-70
2022/12/26 10:44:54;;;;;;;9.35;1.30;;;8.10;99.90;;;;;;5037693;28;20067;-70
2022/12/26 10:47:22;;;;;;;13.27;2.70;;;8.10;99.90;;;;;;5037186;28;20041;-70
2022/12/26 10:49:48;;;;;;;18.50;2.72;;;8.10;99.90;;;;;;5037569;28;20079;-70
2022/12/26 10:52:16;;;;;;;12.43;1.83;;;8.00;99.90;;;;;;5053852;28;20045;-70
2022/12/26 10:54:54;;;;;;;15.82;2.30;;;8.00;99.90;;;;;;5037389;28;20256;-70
2022/12/26 10:57:22;;;;;;;12.55;1.85;;;8.00;99.90;;;;;;5059517;28;20044;-70
2022/12/26 10:59:51;;;;;;;9.00;1.70;;;8.00;99.90;;;;;;5074607;28;20374;-70
2022/12/26 11:02:31;;;;;;;9.75;2.25;;;8.00;99.90;;;;;;5074531;28;20397;-69
2022/12/26 11:04:59;;;;;;;9.82;1.77;;;7.90;99.90;;;;;;5074536;28;20043;-69
2022/12/26 11:07:28;;;;;;;11.27;1.75;;;7.80;99.90;;;;;;5074596;28;20039;-70
2022/12/26 11:09:57;;;;;;;10.35;2.20;;;7.70;99.90;;;;;;5074472;28;20045;-69
2022/12/26 11:12:31;;;;;;;13.13;2.13;;;7.60;99.90;;;;;;5074581;28;20403;-70
2022/12/26 11:15:00;;;;;;;10.30;2.17;;;7.60;99.90;;;;;;5074558;28;20044;-70
2022/12/26 11:17:29;;;;;;;14.57;1.80;;;7.60;99.90;;;;;;5074147;28;20116;-73
2022/12/26 11:20:13;;;;;;;17.70;2.53;;;7.60;99.90;;;;;;5057500;28;20044;-70
2022/12/26 11:22:39;;;;;;;16.77;2.10;;;7.60;99.90;;;;;;5074165;28;20055;-70
2022/12/26 11:25:14;;;;;;;7.43;1.15;;;7.60;99.90;;;;;;5074046;28;20049;-70
2022/12/26 11:27:42;;;;;;;15.52;1.88;;;7.60;99.90;;;;;;5074020;28;20080;-70
2022/12/26 11:30:14;;;;;;;9.80;1.83;;;7.60;99.90;;;;;;5074074;28;20076;-70
2022/12/26 11:32:46;;;;;;;12.40;1.73;;;7.70;99.90;;;;;;5074127;28;20045;-70
2022/12/26 11:35:21;;;;;;;8.80;1.77;;;7.70;99.90;;;;;;5073971;28;20079;-70
2022/12/26 11:37:52;;;;;;;10.45;1.90;;;7.80;99.90;;;;;;5073841;28;20032;-70
2022/12/26 11:40:38;;;;;;;11.40;2.00;;;7.80;99.90;;;;;;5073847;28;20040;-70
2022/12/26 11:43:12;;;;;;;7.18;1.10;;;7.80;99.90;;;;;;5073030;28;20070;-70
2022/12/26 11:45:42;;;;;;;11.70;1.83;;;7.80;99.90;;;;;;5073778;28;20052;-70
2022/12/26 11:48:22;;;;;;;9.95;1.83;;;7.80;99.90;;;;;;5073822;28;20147;-70
2022/12/26 11:50:47;;;;;;;12.85;2.10;;;7.80;99.90;;;;;;5074004;28;20139;-70
2022/12/26 11:53:18;;;;;;;11.93;2.20;;;7.70;99.90;;;;;;5073603;28;20548;-73
2022/12/26 11:55:44;;;;;;;15.93;1.90;;;7.70;99.90;;;;;;5056783;28;20029;-73
2022/12/26 11:58:21;;;;;;;10.43;2.13;;;7.60;99.90;;;;;;5073459;28;20028;-69
2022/12/26 12:00:50;;;;;;;11.55;1.60;;;7.70;99.90;;;;;;5073405;28;20040;-69
2022/12/26 12:03:26;;;;;;;13.82;2.30;;;7.70;99.90;;;;;;5073433;28;20119;-69
2022/12/26 12:06:01;;;;;;;17.33;1.88;;;7.70;99.90;;;;;;5073254;28;20435;-71
2022/12/26 12:09:18;;;;;;;11.27;1.92;;;7.70;99.90;;;;;;5073253;28;20044;-74
2022/12/26 12:11:52;;;;;;;14.90;2.00;;;7.80;99.90;;;;;;5073439;28;20040;-74
2022/12/26 12:14:31;;;;;;;14.82;2.78;;;7.90;99.90;;;;;;5056437;28;20047;-73
2022/12/26 12:17:03;;;;;;;12.35;1.88;;;8.00;99.90;;;;;;5073223;28;20378;-73
2022/12/26 12:19:48;;;;;;;15.80;2.70;;;8.40;99.90;;;;;;5073522;28;20166;-74
2022/12/26 12:22:23;;;;;;;19.02;2.95;;;9.10;99.90;;;;;;5073021;28;20044;-73
2022/12/26 12:25:03;;;;;;;16.15;2.80;;;9.40;99.90;;;;;;5073188;28;20119;-74
2022/12/26 12:27:32;;;;;;;21.40;2.67;;;9.90;99.90;;;;;;5072824;28;20098;-73
2022/12/26 12:30:32;;;;;;;10.02;2.45;;;10.30;99.90;;;;;;5072828;28;20107;-70
2022/12/26 12:33:35;;;;;;;12.80;2.40;;;10.60;99.90;;;;;;5072752;28;20045;-70
2022/12/26 12:36:23;;;;;;;22.05;2.50;;;10.50;99.90;;;;;;5072961;28;20044;-69
2022/12/26 12:39:15;;;;;;;16.27;2.53;;;10.70;99.90;;;;;;5072737;28;20075;-69
2022/12/26 12:41:59;;;;;;;12.20;2.33;;;11.30;99.90;;;;;;5074134;28;20060;-69
2022/12/26 12:44:43;;;;;;;10.23;2.38;;;11.60;99.90;;;;;;5072604;28;20048;-70
2022/12/26 12:47:23;;;;;;;13.07;2.53;;;11.60;99.90;;;;;;5072485;28;20048;-70
2022/12/26 12:50:04;;;;;;;14.55;2.70;;;11.30;99.90;;;;;;5072781;28;20048;-70
2022/12/26 12:52:50;;;;;;;12.73;2.47;;;11.60;99.40;;;;;;5072262;28;20040;-70
2022/12/26 12:55:35;;;;;;;14.90;2.53;;;12.30;99.50;;;;;;5072644;28;20040;-69
2022/12/26 12:58:35;;;;;;;12.52;2.35;;;12.80;94.80;;;;;;5072329;28;20075;-74
2022/12/26 13:01:08;;;;;;;14.10;2.42;;;13.10;93.80;;;;;;5072278;28;20032;-75
2022/12/26 13:03:37;;;;;;;16.17;2.63;;;13.30;94.20;;;;;;5072569;28;20386;-74
2022/12/26 13:06:14;;;;;;;17.50;2.95;;;13.30;93.00;;;;;;5072156;28;20040;-74
2022/12/26 13:08:49;;;;;;;11.30;2.38;;;13.20;90.70;;;;;;5072175;28;20119;-74
2022/12/26 13:11:38;;;;;;;11.73;2.45;;;13.10;91.00;;;;;;5072148;28;20574;-74
2022/12/26 13:14:20;;;;;;;14.35;2.33;;;13.10;89.90;;;;;;5072137;28;20178;-74
2022/12/26 13:16:56;;;;;;;13.35;2.10;;;13.10;85.20;;;;;;5055304;28;20040;-74
2022/12/26 13:19:30;;;;;;;10.52;2.17;;;12.80;87.80;;;;;;5072335;28;20492;-74
2022/12/26 13:22:03;;;;;;;13.20;2.38;;;12.70;88.50;;;;;;5072008;28;20086;-73
2022/12/26 13:24:37;;;;;;;14.25;2.22;;;12.40;88.90;;;;;;5072306;28;20036;-74
2022/12/26 13:27:13;;;;;;;16.48;2.75;;;12.10;90.00;;;;;;5071870;28;20048;-74
2022/12/26 13:29:40;;;;;;;12.10;2.40;;;12.20;90.60;;;;;;5071926;28;20132;-74
2022/12/26 13:32:26;;;;;;;17.15;2.83;;;12.40;90.40;;;;;;5071848;28;20051;-74
2022/12/26 13:34:55;;;;;;;15.73;2.58;;;13.10;85.60;;;;;;5071917;28;20051;-74
2022/12/26 13:37:38;;;;;;;16.38;2.67;;;13.70;86.20;;;;;;5071791;28;20040;-73
2022/12/26 13:40:17;;;;;;;12.48;2.50;;;14.40;81.70;;;;;;5071859;28;20123;-73
2022/12/26 13:45:56;;;;;;;18.27;3.00;;;15.30;77.50;;;;;;5071635;28;20084;-71
2022/12/26 13:48:31;;;;;;;15.32;2.50;;;15.20;78.50;;;;;;5071531;28;20047;-71
2022/12/26 13:51:02;;;;;;;14.50;2.08;;;15.10;77.90;;;;;;5071868;28;20059;-70
2022/12/26 13:53:31;;;;;;;13.27;2.70;;;14.80;78.00;;;;;;5071516;28;20068;-74
2022/12/26 13:56:02;;;;;;;11.38;2.58;;;14.50;77.60;;;;;;5071454;28;20047;-73
2022/12/26 13:58:43;;;;;;;11.40;2.22;;;14.40;77.40;;;;;;5071533;28;20108;-73
2022/12/26 14:01:40;;;;;;;14.43;2.47;;;13.80;78.60;;;;;;5071585;28;20123;-73
2022/12/26 14:04:36;;;;;;;10.80;2.20;;;12.80;77.80;;;;;;5071453;28;20044;-73
2022/12/26 14:07:20;;;;;;;11.43;2.20;;;12.00;81.60;;;;;;5075492;28;20040;-73
2022/12/26 14:09:57;;;;;;;14.68;2.80;;;11.40;84.40;;;;;;5075464;28;20044;-73
2022/12/26 14:13:04;;;;;;;9.48;2.30;;;11.00;86.70;;;;;;5075290;28;20044;-73
2022/12/26 14:15:56;;;;;;;13.85;1.90;;;10.70;87.90;;;;;;5075200;28;20040;-74
2022/12/26 14:18:22;;;;;;;15.88;2.55;;;10.50;88.90;;;;;;5075315;28;20043;-73
2022/12/26 14:21:17;;;;;;;13.10;2.05;;;10.60;90.20;;;;;;5075251;28;20040;-73
2022/12/26 14:23:59;;;;;;;11.23;2.05;;;10.70;88.60;;;;;;5075188;28;20512;-73
2022/12/26 14:26:50;;;;;;;12.52;2.38;;;10.80;89.90;;;;;;5075384;28;20554;-74
2022/12/26 14:29:31;;;;;;;11.85;2.08;;;10.90;89.00;;;;;;5075177;28;20083;-72
2022/12/26 14:32:03;;;;;;;10.50;2.17;;;10.80;89.00;;;;;;5074987;28;20032;-70
2022/12/26 14:34:50;;;;;;;14.73;2.15;;;10.60;90.20;;;;;;5074980;28;20041;-70
2022/12/26 14:37:22;;;;;;;13.40;2.22;;;10.30;90.40;;;;;;5075092;28;20505;-72
2022/12/26 14:39:48;;;;;;;19.88;2.25;;;10.00;90.80;;;;;;5075150;28;20059;-72
2022/12/26 14:45:39;;;;;;;10.65;2.08;;;9.40;91.50;;;;;;5074838;28;20044;-73
2022/12/26 14:48:14;;;;;;;21.52;2.40;;;9.10;91.90;;;;;;5074884;28;20066;-73
2022/12/26 14:50:51;;;;;;;12.50;2.17;;;8.90;93.00;;;;;;5074665;28;20409;-74
2022/12/26 14:53:26;;;;;;;13.93;2.53;;;8.80;93.50;;;;;;5074576;28;20036;-73
2022/12/26 14:56:06;;;;;;;11.45;2.30;;;8.70;94.00;;;;;;5057867;28;20036;-73
2022/12/26 14:58:52;;;;;;;18.92;2.40;;;8.50;94.50;;;;;;5074802;28;20076;-72
2022/12/26 15:01:20;;;;;;;13.52;2.13;;;8.40;94.90;;;;;;5074526;28;20041;-72
2022/12/26 15:04:04;;;;;;;12.45;2.53;;;8.30;95.40;;;;;;5074643;28;20382;-73
2022/12/26 15:06:53;;;;;;;14.35;2.22;;;8.20;95.40;;;;;;5074375;28;20459;-73
2022/12/26 15:09:50;;;;;;;16.98;2.25;;;8.10;96.00;;;;;;5074609;28;20515;-71
2022/12/26 15:12:36;;;;;;;13.98;2.22;;;8.00;96.30;;;;;;5058122;28;20051;-71
2022/12/26 15:15:17;;;;;;;15.52;2.40;;;7.80;96.90;;;;;;5074270;28;20493;-71
2022/12/26 15:18:27;;;;;;;11.98;2.35;;;7.70;97.30;;;;;;5074158;28;20492;-71
2022/12/26 15:21:09;;;;;;;13.70;2.65;;;7.70;97.40;;;;;;5057522;28;20044;-71
2022/12/26 15:23:56;;;;;;;15.95;2.35;;;7.50;97.90;;;;;;5074578;28;20447;-72